sensor_id;sensor_type;location;lat;lon;timestamp;pressure;altitude;pressure_sealevel;temperature;humidity
11523;BME280;40093;43.224;27.910;2023-02-26T00:00:08;99473.81;;;15.16;93.45
11523;BME280;40093;43.224;27.910;2023-02-26T00:02:39;99482.13;;;15.16;93.61
11523;BME280;40093;43.224;27.910;2023-02-26T00:05:08;99483.53;;;15.08;94.15
11523;BME280;40093;43.224;27.910;2023-02-26T00:07:35;99493.41;;;15.09;94.45
11523;BME280;40093;43.224;27.910;2023-02-26T00:10:03;99488.19;;;15.11;94.22
11523;BME280;40093;43.224;27.910;2023-02-26T00:12:31;99491.31;;;15.13;94.71
11523;BME280;40093;43.224;27.910;2023-02-26T00:14:58;99471.03;;;15.00;95.10
11523;BME280;40093;43.224;27.910;2023-02-26T00:17:31;99471.03;;;15.00;95.79
11523;BME280;40093;43.224;27.910;2023-02-26T00:20:00;99479.47;;;15.13;96.19
11523;BME280;40093;43.224;27.910;2023-02-26T00:22:30;99485.22;;;15.02;97.46
11523;BME280;40093;43.224;27.910;2023-02-26T00:24:57;99473.00;;;15.00;98.32
11523;BME280;40093;43.224;27.910;2023-02-26T00:27:24;99474.16;;;15.02;98.37
11523;BME280;40093;43.224;27.910;2023-02-26T00:29:51;99484.38;;;15.05;98.79
11523;BME280;40093;43.224;27.910;2023-02-26T00:32:19;99471.03;;;15.00;99.65
11523;BME280;40093;43.224;27.910;2023-02-26T00:34:47;99470.16;;;15.03;100.00
11523;BME280;40093;43.224;27.910;2023-02-26T00:37:22;99415.56;;;14.69;100.00
11523;BME280;40093;43.224;27.910;2023-02-26T00:40:02;99486.78;;;15.03;100.00
11523;BME280;40093;43.224;27.910;2023-02-26T00:42:33;99478.66;;;15.12;100.00
11523;BME280;40093;43.224;27.910;2023-02-26T00:45:01;99480.81;;;15.05;100.00
11523;BME280;40093;43.224;27.910;2023-02-26T00:47:33;99481.03;;;15.14;100.00
11523;BME280;40093;43.224;27.910;2023-02-26T00:50:12;99465.50;;;15.16;100.00
11523;BME280;40093;43.224;27.910;2023-02-26T00:52:45;99465.16;;;15.14;100.00
11523;BME280;40093;43.224;27.910;2023-02-26T00:55:17;99461.34;;;15.08;100.00
11523;BME280;40093;43.224;27.910;2023-02-26T00:57:44;99450.28;;;15.08;100.00
11523;BME280;40093;43.224;27.910;2023-02-26T01:00:12;99451.31;;;15.14;100.00
11523;BME280;40093;43.224;27.910;2023-02-26T01:02:40;99455.81;;;15.08;100.00
11523;BME280;40093;43.224;27.910;2023-02-26T01:05:09;99453.72;;;14.97;100.00
11523;BME280;40093;43.224;27.910;2023-02-26T01:07:41;99460.75;;;15.01;100.00
11523;BME280;40093;43.224;27.910;2023-02-26T01:10:11;99444.34;;;14.91;100.00
11523;BME280;40093;43.224;27.910;2023-02-26T01:12:40;99449.03;;;14.93;100.00
11523;BME280;40093;43.224;27.910;2023-02-26T01:15:08;99448.25;;;14.93;100.00
11523;BME280;40093;43.224;27.910;2023-02-26T01:17:41;99448.41;;;14.86;100.00
11523;BME280;40093;43.224;27.910;2023-02-26T01:20:15;99438.22;;;14.99;100.00
11523;BME280;40093;43.224;27.910;2023-02-26T01:22:47;99451.13;;;15.05;100.00
11523;BME280;40093;43.224;27.910;2023-02-26T01:25:21;99440.03;;;15.05;100.00
11523;BME280;40093;43.224;27.910;2023-02-26T01:27:50;99436.72;;;14.94;100.00
11523;BME280;40093;43.224;27.910;2023-02-26T01:30:18;99444.34;;;14.91;100.00
11523;BME280;40093;43.224;27.910;2023-02-26T01:32:49;99432.59;;;15.02;100.00
11523;BME280;40093;43.224;27.910;2023-02-26T01:35:31;99435.50;;;14.95;100.00
11523;BME280;40093;43.224;27.910;2023-02-26T01:38:02;99438.28;;;14.95;100.00
11523;BME280;40093;43.224;27.910;2023-02-26T01:40:42;99440.97;;;14.99;100.00
11523;BME280;40093;43.224;27.910;2023-02-26T01:43:16;99441.56;;;14.91;100.00
11523;BME280;40093;43.224;27.910;2023-02-26T01:45:54;99437.88;;;14.97;100.00
11523;BME280;40093;43.224;27.910;2023-02-26T01:48:35;99440.91;;;15.02;100.00
11523;BME280;40093;43.224;27.910;2023-02-26T01:51:04;99447.31;;;14.99;100.00
11523;BME280;40093;43.224;27.910;2023-02-26T01:53:31;99449.75;;;14.98;100.00
11523;BME280;40093;43.224;27.910;2023-02-26T01:56:02;99448.44;;;15.02;100.00
11523;BME280;40093;43.224;27.910;2023-02-26T01:58:34;99453.53;;;15.03;100.00
11523;BME280;40093;43.224;27.910;2023-02-26T02:01:03;99456.31;;;15.03;100.00
11523;BME280;40093;43.224;27.910;2023-02-26T02:03:33;99457.44;;;15.06;100.00
11523;BME280;40093;43.224;27.910;2023-02-26T02:06:05;99452.84;;;14.99;100.00
11523;BME280;40093;43.224;27.910;2023-02-26T02:08:33;99471.91;;;14.98;100.00
11523;BME280;40093;43.224;27.910;2023-02-26T02:11:01;99471.91;;;14.98;100.00
11523;BME280;40093;43.224;27.910;2023-02-26T02:13:43;99482.13;;;15.00;100.00
11523;BME280;40093;43.224;27.910;2023-02-26T02:16:24;99492.94;;;15.11;100.00
11523;BME280;40093;43.224;27.910;2023-02-26T02:19:00;99486.91;;;15.16;100.00
11523;BME280;40093;43.224;27.910;2023-02-26T02:21:51;99494.44;;;15.15;100.00
11523;BME280;40093;43.224;27.910;2023-02-26T02:24:26;99497.47;;;15.21;100.00
11523;BME280;40093;43.224;27.910;2023-02-26T02:27:05;99482.31;;;15.09;100.00
11523;BME280;40093;43.224;27.910;2023-02-26T02:29:52;99499.13;;;15.18;100.00
11523;BME280;40093;43.224;27.910;2023-02-26T02:32:27;99495.91;;;15.20;100.00
11523;BME280;40093;43.224;27.910;2023-02-26T02:35:02;99490.09;;;15.14;100.00
11523;BME280;40093;43.224;27.910;2023-02-26T02:37:36;99480.56;;;14.99;100.00
11523;BME280;40093;43.224;27.910;2023-02-26T02:40:08;99492.34;;;15.03;100.00
11523;BME280;40093;43.224;27.910;2023-02-26T02:42:40;99488.53;;;14.98;100.00
11523;BME280;40093;43.224;27.910;2023-02-26T02:45:14;99503.41;;;15.03;100.00
11523;BME280;40093;43.224;27.910;2023-02-26T02:47:48;99504.13;;;15.07;100.00
11523;BME280;40093;43.224;27.910;2023-02-26T02:50:19;99507.06;;;15.00;100.00
11523;BME280;40093;43.224;27.910;2023-02-26T02:52:53;99509.47;;;14.98;100.00
11523;BME280;40093;43.224;27.910;2023-02-26T02:55:25;99501.50;;;15.00;100.00
11523;BME280;40093;43.224;27.910;2023-02-26T02:57:58;99512.25;;;14.98;100.00
11523;BME280;40093;43.224;27.910;2023-02-26T03:00:29;99520.03;;;15.03;100.00
11523;BME280;40093;43.224;27.910;2023-02-26T03:03:01;99524.38;;;15.04;100.00
11523;BME280;40093;43.224;27.910;2023-02-26T03:05:32;99519.88;;;15.10;100.00
11523;BME280;40093;43.224;27.910;2023-02-26T03:08:04;99518.34;;;15.09;100.00
11523;BME280;40093;43.224;27.910;2023-02-26T03:10:32;99521.03;;;15.13;100.00
11523;BME280;40093;43.224;27.910;2023-02-26T03:12:59;99521.97;;;15.06;100.00
11523;BME280;40093;43.224;27.910;2023-02-26T03:15:33;99526.13;;;15.14;100.00
11523;BME280;40093;43.224;27.910;2023-02-26T03:18:11;99537.94;;;15.18;100.00
11523;BME280;40093;43.224;27.910;2023-02-26T03:20:52;99545.03;;;15.19;100.00
11523;BME280;40093;43.224;27.910;2023-02-26T03:23:24;99535.03;;;15.06;100.00
11523;BME280;40093;43.224;27.910;2023-02-26T03:26:00;99544.03;;;15.10;100.00
11523;BME280;40093;43.224;27.910;2023-02-26T03:28:33;99542.06;;;15.10;100.00
11523;BME280;40093;43.224;27.910;2023-02-26T03:31:06;99540.44;;;15.13;100.00
11523;BME280;40093;43.224;27.910;2023-02-26T03:33:41;99537.28;;;15.11;100.00
11523;BME280;40093;43.224;27.910;2023-02-26T03:36:17;99538.06;;;15.11;100.00
11523;BME280;40093;43.224;27.910;2023-02-26T03:38:47;99548.59;;;15.00;100.00
11523;BME280;40093;43.224;27.910;2023-02-26T03:41:19;99541.66;;;14.93;100.00
11523;BME280;40093;43.224;27.910;2023-02-26T03:43:53;99551.88;;;14.95;100.00
11523;BME280;40093;43.224;27.910;2023-02-26T03:46:25;99551.38;;;15.00;100.00
11523;BME280;40093;43.224;27.910;2023-02-26T03:48:56;99547.91;;;14.97;100.00
11523;BME280;40093;43.224;27.910;2023-02-26T03:51:26;99550.31;;;14.94;100.00
11523;BME280;40093;43.224;27.910;2023-02-26T03:53:59;99563.53;;;15.06;100.00
11523;BME280;40093;43.224;27.910;2023-02-26T03:56:30;99563.44;;;15.10;100.00
11523;BME280;40093;43.224;27.910;2023-02-26T03:59:01;99560.59;;;15.13;100.00
11523;BME280;40093;43.224;27.910;2023-02-26T04:01:32;99564.56;;;15.12;100.00
11523;BME280;40093;43.224;27.910;2023-02-26T04:04:06;99567.34;;;15.12;100.00
11523;BME280;40093;43.224;27.910;2023-02-26T04:06:35;99573.09;;;15.21;100.00
11523;BME280;40093;43.224;27.910;2023-02-26T04:09:03;99581.25;;;15.28;100.00
11523;BME280;40093;43.224;27.910;2023-02-26T04:11:31;99571.53;;;15.20;100.00
11523;BME280;40093;43.224;27.910;2023-02-26T04:13:58;99579.34;;;15.25;100.00
11523;BME280;40093;43.224;27.910;2023-02-26T04:16:25;99592.66;;;15.34;100.00
11523;BME280;40093;43.224;27.910;2023-02-26T04:18:52;99532.47;;;14.95;100.00
11523;BME280;40093;43.224;27.910;2023-02-26T04:21:23;99587.66;;;15.25;100.00
11523;BME280;40093;43.224;27.910;2023-02-26T04:23:50;99578.00;;;15.33;100.00
11523;BME280;40093;43.224;27.910;2023-02-26T04:26:17;99584.03;;;15.28;100.00
11523;BME280;40093;43.224;27.910;2023-02-26T04:28:43;99574.81;;;15.35;100.00
11523;BME280;40093;43.224;27.910;2023-02-26T04:31:10;99587.72;;;15.41;100.00
11523;BME280;40093;43.224;27.910;2023-02-26T04:33:37;99583.53;;;15.33;100.00
11523;BME280;40093;43.224;27.910;2023-02-26T04:36:05;99599.31;;;15.36;100.00
11523;BME280;40093;43.224;27.910;2023-02-26T04:38:33;99590.50;;;15.41;100.00
11523;BME280;40093;43.224;27.910;2023-02-26T04:41:00;99580.28;;;15.38;100.00
11523;BME280;40093;43.224;27.910;2023-02-26T04:43:27;99586.16;;;15.40;100.00
11523;BME280;40093;43.224;27.910;2023-02-26T04:45:53;99584.50;;;15.43;100.00
11523;BME280;40093;43.224;27.910;2023-02-26T04:48:20;99592.00;;;15.46;100.00
11523;BME280;40093;43.224;27.910;2023-02-26T04:50:47;99582.53;;;15.43;100.00
11523;BME280;40093;43.224;27.910;2023-02-26T04:53:14;99587.28;;;15.43;100.00
11523;BME280;40093;43.224;27.910;2023-02-26T04:55:42;99590.31;;;15.48;100.00
11523;BME280;40093;43.224;27.910;2023-02-26T04:58:11;99591.03;;;15.52;100.00
11523;BME280;40093;43.224;27.910;2023-02-26T05:00:38;99590.88;;;15.59;100.00
11523;BME280;40093;43.224;27.910;2023-02-26T05:03:04;99591.31;;;15.58;100.00
11523;BME280;40093;43.224;27.910;2023-02-26T05:05:33;99605.19;;;15.58;100.00
11523;BME280;40093;43.224;27.910;2023-02-26T05:08:01;99611.16;;;15.56;100.00
11523;BME280;40093;43.224;27.910;2023-02-26T05:10:28;99618.69;;;15.56;100.00
11523;BME280;40093;43.224;27.910;2023-02-26T05:12:56;99613.16;;;15.56;100.00
11523;BME280;40093;43.224;27.910;2023-02-26T05:15:23;99609.25;;;15.53;100.00
11523;BME280;40093;43.224;27.910;2023-02-26T05:17:50;99618.84;;;15.49;100.00
11523;BME280;40093;43.224;27.910;2023-02-26T05:20:17;99642.88;;;15.55;100.00
11523;BME280;40093;43.224;27.910;2023-02-26T05:22:44;99640.00;;;15.59;100.00
11523;BME280;40093;43.224;27.910;2023-02-26T05:25:11;99655.84;;;15.58;100.00
11523;BME280;40093;43.224;27.910;2023-02-26T05:27:39;99659.00;;;15.60;100.00
11523;BME280;40093;43.224;27.910;2023-02-26T05:30:12;99650.84;;;15.53;100.00
11523;BME280;40093;43.224;27.910;2023-02-26T05:32:39;99658.63;;;15.58;100.00
11523;BME280;40093;43.224;27.910;2023-02-26T05:35:07;99661.59;;;15.51;100.00
11523;BME280;40093;43.224;27.910;2023-02-26T05:37:34;99658.28;;;15.56;100.00
11523;BME280;40093;43.224;27.910;2023-02-26T05:40:01;99661.59;;;15.51;100.00
11523;BME280;40093;43.224;27.910;2023-02-26T05:42:28;99668.19;;;15.38;100.00
11523;BME280;40093;43.224;27.910;2023-02-26T05:44:55;99672.75;;;15.48;100.00
11523;BME280;40093;43.224;27.910;2023-02-26T05:47:24;99677.78;;;15.53;100.00
11523;BME280;40093;43.224;27.910;2023-02-26T05:49:52;99679.91;;;15.65;100.00
11523;BME280;40093;43.224;27.910;2023-02-26T05:52:19;99689.53;;;15.76;100.00
11523;BME280;40093;43.224;27.910;2023-02-26T05:54:47;99677.16;;;15.81;100.00
11523;BME280;40093;43.224;27.910;2023-02-26T05:57:14;99679.13;;;15.80;100.00
11523;BME280;40093;43.224;27.910;2023-02-26T05:59:41;99679.03;;;15.68;100.00
11523;BME280;40093;43.224;27.910;2023-02-26T06:02:08;99682.50;;;15.72;100.00
11523;BME280;40093;43.224;27.910;2023-02-26T06:04:36;99677.03;;;15.68;100.00
11523;BME280;40093;43.224;27.910;2023-02-26T06:07:03;99683.78;;;15.67;100.00
11523;BME280;40093;43.224;27.910;2023-02-26T06:09:30;99684.59;;;15.68;100.00
11523;BME280;40093;43.224;27.910;2023-02-26T06:11:57;99684.25;;;15.66;100.00
11523;BME280;40093;43.224;27.910;2023-02-26T06:14:24;99689.78;;;15.66;100.00
11523;BME280;40093;43.224;27.910;2023-02-26T06:16:51;99679.03;;;15.68;100.00
11523;BME280;40093;43.224;27.910;2023-02-26T06:19:17;99684.31;;;15.62;100.00
11523;BME280;40093;43.224;27.910;2023-02-26T06:21:47;99678.03;;;15.58;100.00
11523;BME280;40093;43.224;27.910;2023-02-26T06:24:14;99704.16;;;15.61;100.00
11523;BME280;40093;43.224;27.910;2023-02-26T06:26:41;99695.06;;;15.60;100.00
11523;BME280;40093;43.224;27.910;2023-02-26T06:29:08;99697.47;;;15.58;100.00
11523;BME280;40093;43.224;27.910;2023-02-26T06:31:35;99694.69;;;15.58;100.00
11523;BME280;40093;43.224;27.910;2023-02-26T06:34:02;99690.69;;;15.59;100.00
11523;BME280;40093;43.224;27.910;2023-02-26T06:36:29;99708.41;;;15.65;100.00
11523;BME280;40093;43.224;27.910;2023-02-26T06:38:57;99697.31;;;15.65;100.00
11523;BME280;40093;43.224;27.910;2023-02-26T06:41:24;99711.41;;;15.74;100.00
11523;BME280;40093;43.224;27.910;2023-02-26T06:43:51;99708.28;;;15.72;100.00
11523;BME280;40093;43.224;27.910;2023-02-26T06:46:18;99719.72;;;15.74;99.69
11523;BME280;40093;43.224;27.910;2023-02-26T06:48:45;99717.44;;;15.69;99.47
11523;BME280;40093;43.224;27.910;2023-02-26T06:51:14;99723.16;;;15.62;99.01
11523;BME280;40093;43.224;27.910;2023-02-26T06:53:41;99716.31;;;15.67;98.96
11523;BME280;40093;43.224;27.910;2023-02-26T06:56:09;99718.44;;;15.59;98.70
11523;BME280;40093;43.224;27.910;2023-02-26T06:58:36;99729.91;;;15.61;98.76
11523;BME280;40093;43.224;27.910;2023-02-26T07:01:03;99740.47;;;15.66;98.52
11523;BME280;40093;43.224;27.910;2023-02-26T07:03:30;99737.56;;;15.73;98.14
11523;BME280;40093;43.224;27.910;2023-02-26T07:05:57;99725.25;;;15.74;98.13
11523;BME280;40093;43.224;27.910;2023-02-26T07:08:24;99751.28;;;15.80;97.68
11523;BME280;40093;43.224;27.910;2023-02-26T07:10:51;99750.22;;;15.74;97.52
11523;BME280;40093;43.224;27.910;2023-02-26T07:13:19;99734.44;;;15.71;98.02
11523;BME280;40093;43.224;27.910;2023-02-26T07:15:46;99731.75;;;15.68;98.35
11523;BME280;40093;43.224;27.910;2023-02-26T07:18:14;99719.50;;;15.65;98.53
11523;BME280;40093;43.224;27.910;2023-02-26T07:20:41;99736.84;;;15.69;98.11
11523;BME280;40093;43.224;27.910;2023-02-26T07:23:10;99728.34;;;15.60;98.09
11523;BME280;40093;43.224;27.910;2023-02-26T07:25:37;99718.63;;;15.68;97.85
11523;BME280;40093;43.224;27.910;2023-02-26T07:28:04;99749.00;;;15.75;97.39
11523;BME280;40093;43.224;27.910;2023-02-26T07:30:33;99759.59;;;15.80;96.97
11523;BME280;40093;43.224;27.910;2023-02-26T07:33:00;99694.78;;;15.35;96.89
11523;BME280;40093;43.224;27.910;2023-02-26T07:35:27;99769.50;;;15.81;97.00
11523;BME280;40093;43.224;27.910;2023-02-26T07:37:54;99767.44;;;15.85;96.61
11523;BME280;40093;43.224;27.910;2023-02-26T07:40:21;99771.63;;;15.93;96.09
11523;BME280;40093;43.224;27.910;2023-02-26T07:42:48;99764.13;;;16.10;94.86
11523;BME280;40093;43.224;27.910;2023-02-26T07:45:14;99748.03;;;16.01;94.05
11523;BME280;40093;43.224;27.910;2023-02-26T07:47:45;99757.28;;;16.14;93.70
11523;BME280;40093;43.224;27.910;2023-02-26T07:50:14;99751.34;;;16.12;93.58
11523;BME280;40093;43.224;27.910;2023-02-26T07:52:41;99749.72;;;16.15;92.78
11523;BME280;40093;43.224;27.910;2023-02-26T07:55:08;99750.50;;;16.15;93.03
11523;BME280;40093;43.224;27.910;2023-02-26T07:57:36;99741.84;;;16.13;92.12
11523;BME280;40093;43.224;27.910;2023-02-26T08:00:04;99746.59;;;16.13;91.99
11523;BME280;40093;43.224;27.910;2023-02-26T08:02:31;99754.84;;;16.16;92.21
11523;BME280;40093;43.224;27.910;2023-02-26T08:05:00;99747.06;;;16.27;91.69
11523;BME280;40093;43.224;27.910;2023-02-26T08:07:27;99742.19;;;16.31;91.17
11523;BME280;40093;43.224;27.910;2023-02-26T08:09:54;99750.34;;;16.22;90.54
11523;BME280;40093;43.224;27.910;2023-02-26T08:12:21;99752.03;;;16.36;90.29
11523;BME280;40093;43.224;27.910;2023-02-26T08:14:49;99750.50;;;16.51;89.02
11523;BME280;40093;43.224;27.910;2023-02-26T08:17:16;99755.44;;;16.43;88.74
11523;BME280;40093;43.224;27.910;2023-02-26T08:19:42;99754.41;;;16.53;87.45
11523;BME280;40093;43.224;27.910;2023-02-26T08:22:11;99749.34;;;16.64;87.11
11523;BME280;40093;43.224;27.910;2023-02-26T08:24:38;99743.38;;;16.66;85.67
11523;BME280;40093;43.224;27.910;2023-02-26T08:27:05;99748.66;;;16.76;85.11
11523;BME280;40093;43.224;27.910;2023-02-26T08:29:32;99751.34;;;16.80;84.11
11523;BME280;40093;43.224;27.910;2023-02-26T08:31:59;99747.09;;;16.75;83.90
11523;BME280;40093;43.224;27.910;2023-02-26T08:34:26;99742.41;;;16.88;84.02
11523;BME280;40093;43.224;27.910;2023-02-26T08:36:52;99729.91;;;16.80;83.25
11523;BME280;40093;43.224;27.910;2023-02-26T08:39:21;99734.41;;;16.90;82.53
11523;BME280;40093;43.224;27.910;2023-02-26T08:41:48;99732.16;;;17.01;82.18
11523;BME280;40093;43.224;27.910;2023-02-26T08:44:14;99721.13;;;16.98;81.80
11523;BME280;40093;43.224;27.910;2023-02-26T08:46:41;99720.13;;;17.20;80.38
11523;BME280;40093;43.224;27.910;2023-02-26T08:49:08;99727.56;;;17.23;79.11
11523;BME280;40093;43.224;27.910;2023-02-26T08:51:35;99734.06;;;17.33;78.95
11523;BME280;40093;43.224;27.910;2023-02-26T08:54:02;99726.88;;;17.35;78.22
11523;BME280;40093;43.224;27.910;2023-02-26T08:56:30;99727.53;;;17.39;77.59
11523;BME280;40093;43.224;27.910;2023-02-26T08:58:57;99719.72;;;17.34;77.47
11523;BME280;40093;43.224;27.910;2023-02-26T09:01:24;99730.59;;;17.57;76.69
11523;BME280;40093;43.224;27.910;2023-02-26T09:03:52;99724.97;;;17.73;76.16
11523;BME280;40093;43.224;27.910;2023-02-26T09:06:19;99728.75;;;17.79;75.17
11523;BME280;40093;43.224;27.910;2023-02-26T09:08:45;99732.56;;;17.85;74.80
11523;BME280;40093;43.224;27.910;2023-02-26T09:11:14;99716.63;;;17.85;74.63
11523;BME280;40093;43.224;27.910;2023-02-26T09:13:42;99731.59;;;18.16;73.49
11523;BME280;40093;43.224;27.910;2023-02-26T09:16:09;99731.69;;;18.00;73.88
11523;BME280;40093;43.224;27.910;2023-02-26T09:18:36;99722.25;;;18.10;73.24
11523;BME280;40093;43.224;27.910;2023-02-26T09:21:03;99712.78;;;18.08;73.49
11523;BME280;40093;43.224;27.910;2023-02-26T09:23:30;99715.56;;;18.20;72.72
11523;BME280;40093;43.224;27.910;2023-02-26T09:25:57;99710.31;;;18.22;71.98
11523;BME280;40093;43.224;27.910;2023-02-26T09:28:25;99709.44;;;18.50;71.67
11523;BME280;40093;43.224;27.910;2023-02-26T09:30:53;99704.75;;;18.35;71.60
11523;BME280;40093;43.224;27.910;2023-02-26T09:33:21;99715.34;;;18.40;71.53
11523;BME280;40093;43.224;27.910;2023-02-26T09:35:49;99725.06;;;18.48;71.27
11523;BME280;40093;43.224;27.910;2023-02-26T09:38:17;99714.56;;;18.52;71.17
11523;BME280;40093;43.224;27.910;2023-02-26T09:40:47;99733.94;;;18.43;71.86
11523;BME280;40093;43.224;27.910;2023-02-26T09:46:27;99734.94;;;18.61;71.17
11523;BME280;40093;43.224;27.910;2023-02-26T09:49:04;99726.25;;;18.47;71.83
11523;BME280;40093;43.224;27.910;2023-02-26T09:51:34;99731.59;;;18.41;72.02
11523;BME280;40093;43.224;27.910;2023-02-26T09:54:04;99727.25;;;18.53;72.28
11523;BME280;40093;43.224;27.910;2023-02-26T09:56:34;99721.34;;;18.63;71.90
11523;BME280;40093;43.224;27.910;2023-02-26T09:59:02;99720.22;;;18.61;71.47
11523;BME280;40093;43.224;27.910;2023-02-26T10:01:34;99715.22;;;18.56;71.43
11523;BME280;40093;43.224;27.910;2023-02-26T10:04:07;99692.75;;;18.38;71.23
11523;BME280;40093;43.224;27.910;2023-02-26T10:06:45;99706.22;;;18.27;71.96
11523;BME280;40093;43.224;27.910;2023-02-26T10:09:30;99727.63;;;18.30;72.24
11523;BME280;40093;43.224;27.910;2023-02-26T10:12:04;99692.97;;;18.31;71.61
11523;BME280;40093;43.224;27.910;2023-02-26T10:14:38;99712.13;;;18.29;72.15
11523;BME280;40093;43.224;27.910;2023-02-26T10:17:18;99678.91;;;18.22;72.35
11523;BME280;40093;43.224;27.910;2023-02-26T10:19:52;99705.66;;;18.32;71.92
11523;BME280;40093;43.224;27.910;2023-02-26T10:22:28;99706.00;;;18.34;71.85
11523;BME280;40093;43.224;27.910;2023-02-26T10:25:02;99717.47;;;18.36;71.49
11523;BME280;40093;43.224;27.910;2023-02-26T10:27:48;99697.06;;;18.26;71.94
11523;BME280;40093;43.224;27.910;2023-02-26T10:30:24;99718.03;;;18.31;72.07
11523;BME280;40093;43.224;27.910;2023-02-26T10:33:00;99723.16;;;18.32;72.10
11523;BME280;40093;43.224;27.910;2023-02-26T10:35:31;99719.91;;;18.34;72.09
11523;BME280;40093;43.224;27.910;2023-02-26T10:38:04;99732.19;;;18.36;72.40
11523;BME280;40093;43.224;27.910;2023-02-26T10:40:38;99709.47;;;18.38;71.92
11523;BME280;40093;43.224;27.910;2023-02-26T10:43:13;99727.78;;;18.23;72.40
11523;BME280;40093;43.224;27.910;2023-02-26T10:45:57;99723.47;;;18.22;72.41
11523;BME280;40093;43.224;27.910;2023-02-26T10:48:44;99736.31;;;18.32;72.08
11523;BME280;40093;43.224;27.910;2023-02-26T10:51:18;99727.03;;;18.35;71.50
11523;BME280;40093;43.224;27.910;2023-02-26T10:53:48;99714.34;;;18.34;71.34
11523;BME280;40093;43.224;27.910;2023-02-26T10:56:19;99694.53;;;18.32;71.02
11523;BME280;40093;43.224;27.910;2023-02-26T10:58:48;99709.34;;;18.29;71.04
11523;BME280;40093;43.224;27.910;2023-02-26T11:01:21;99687.56;;;18.24;71.24
11523;BME280;40093;43.224;27.910;2023-02-26T11:03:54;99716.81;;;18.32;71.84
11523;BME280;40093;43.224;27.910;2023-02-26T11:06:23;99705.41;;;18.26;72.14
11523;BME280;40093;43.224;27.910;2023-02-26T11:08:54;99711.41;;;18.25;72.34
11523;BME280;40093;43.224;27.910;2023-02-26T11:11:44;99710.53;;;18.28;71.93
11523;BME280;40093;43.224;27.910;2023-02-26T11:14:13;99736.84;;;18.27;71.95
11523;BME280;40093;43.224;27.910;2023-02-26T11:16:43;99728.13;;;18.25;71.53
11523;BME280;40093;43.224;27.910;2023-02-26T11:19:15;99733.69;;;18.25;71.36
11523;BME280;40093;43.224;27.910;2023-02-26T11:21:43;99730.47;;;18.14;71.38
11523;BME280;40093;43.224;27.910;2023-02-26T11:24:14;99732.16;;;18.11;71.46
11523;BME280;40093;43.224;27.910;2023-02-26T11:26:46;99732.78;;;18.03;71.92
11523;BME280;40093;43.224;27.910;2023-02-26T11:29:14;99735.81;;;18.08;71.94
11523;BME280;40093;43.224;27.910;2023-02-26T11:31:46;99719.91;;;18.09;71.92
11523;BME280;40093;43.224;27.910;2023-02-26T11:34:15;99731.13;;;18.05;72.15
11523;BME280;40093;43.224;27.910;2023-02-26T11:36:43;99716.78;;;18.07;72.35
11523;BME280;40093;43.224;27.910;2023-02-26T11:39:15;99691.94;;;18.12;72.08
11523;BME280;40093;43.224;27.910;2023-02-26T11:41:44;99715.88;;;18.10;72.25
11523;BME280;40093;43.224;27.910;2023-02-26T11:44:14;99714.56;;;18.14;72.13
11523;BME280;40093;43.224;27.910;2023-02-26T11:46:45;99710.00;;;18.08;72.07
11523;BME280;40093;43.224;27.910;2023-02-26T11:49:16;99738.81;;;18.14;72.14
11523;BME280;40093;43.224;27.910;2023-02-26T11:51:45;99739.50;;;18.18;71.60
11523;BME280;40093;43.224;27.910;2023-02-26T11:54:21;99743.28;;;18.24;71.37
11523;BME280;40093;43.224;27.910;2023-02-26T11:56:48;99743.53;;;18.17;71.13
11523;BME280;40093;43.224;27.910;2023-02-26T11:59:17;99760.88;;;18.21;71.21
11523;BME280;40093;43.224;27.910;2023-02-26T12:01:45;99729.94;;;18.19;70.86
11523;BME280;40093;43.224;27.910;2023-02-26T12:04:21;99737.06;;;18.20;70.48
11523;BME280;40093;43.224;27.910;2023-02-26T12:06:51;99754.41;;;18.24;70.49
11523;BME280;40093;43.224;27.910;2023-02-26T12:09:19;99747.78;;;18.34;70.12
11523;BME280;40093;43.224;27.910;2023-02-26T12:11:58;99742.88;;;18.38;69.68
11523;BME280;40093;43.224;27.910;2023-02-26T12:14:42;99745.63;;;18.25;70.05
11523;BME280;40093;43.224;27.910;2023-02-26T12:17:23;99751.78;;;18.33;69.95
11523;BME280;40093;43.224;27.910;2023-02-26T12:20:03;99763.63;;;18.37;69.07
11523;BME280;40093;43.224;27.910;2023-02-26T12:22:48;99758.91;;;18.34;68.26
11523;BME280;40093;43.224;27.910;2023-02-26T12:26:07;99771.50;;;18.38;66.89
11523;BME280;40093;43.224;27.910;2023-02-26T12:29:03;99768.72;;;18.38;66.42
11523;BME280;40093;43.224;27.910;2023-02-26T12:34:40;99765.16;;;18.38;66.02
11523;BME280;40093;43.224;27.910;2023-02-26T12:37:26;99746.31;;;18.42;65.84
11523;BME280;40093;43.224;27.910;2023-02-26T12:40:05;99763.03;;;18.42;65.81
11523;BME280;40093;43.224;27.910;2023-02-26T12:42:44;99761.81;;;18.43;66.75
11523;BME280;40093;43.224;27.910;2023-02-26T12:45:33;99748.09;;;18.48;66.56
11523;BME280;40093;43.224;27.910;2023-02-26T12:48:21;99770.06;;;18.34;67.42
11523;BME280;40093;43.224;27.910;2023-02-26T12:50:58;99756.13;;;18.34;66.94
11523;BME280;40093;43.224;27.910;2023-02-26T12:54:03;99755.81;;;18.32;67.06
11523;BME280;40093;43.224;27.910;2023-02-26T12:56:43;99765.06;;;18.29;67.01
11523;BME280;40093;43.224;27.910;2023-02-26T12:59:36;99760.00;;;18.24;67.10
11523;BME280;40093;43.224;27.910;2023-02-26T13:02:24;99743.53;;;18.17;67.22
11523;BME280;40093;43.224;27.910;2023-02-26T13:05:14;99751.88;;;18.17;67.00
11523;BME280;40093;43.224;27.910;2023-02-26T13:07:50;99757.97;;;18.12;67.12
11523;BME280;40093;43.224;27.910;2023-02-26T13:10:25;99735.47;;;17.94;67.59